Time;durP1;ratioP1;P1;durP2;ratioP2;P2;SDS_P1;SDS_P2;PMS_P1;PMS_P2;Temp;Humidity;BMP_temperature;BMP_pressure;BME280_temperature;BME280_humidity;BME280_pressure;Samples;Min_cycle;Max_cycle;Signal;HPM_P1;HPM_P2
2024/04/19 00:00:40;;;;;;;2.08;1.77;;;;;;;12.25;42.75;97353.59;5177827;27;20392;-80
2024/04/19 00:03:05;;;;;;;2.17;1.98;;;;;;;12.35;42.18;97351.88;5179229;27;20026;-81
2024/04/19 00:05:31;;;;;;;3.33;2.00;;;;;;;12.37;42.12;97338.53;5204783;27;20360;-81
2024/04/19 00:07:56;;;;;;;3.80;2.15;;;;;;;12.47;41.87;97345.66;5177956;27;20047;-82
2024/04/19 00:10:21;;;;;;;2.80;2.15;;;;;;;12.49;41.99;97339.16;5191971;27;20008;-80
2024/04/19 00:12:47;;;;;;;2.70;2.38;;;;;;;12.49;41.60;97336.53;5179647;27;20007;-80
2024/04/19 00:15:12;;;;;;;3.60;2.22;;;;;;;12.49;41.84;97341.75;5150660;27;20015;-81
2024/04/19 00:17:38;;;;;;;2.45;2.25;;;;;;;12.37;42.00;97317.63;5206601;27;20008;-82
2024/04/19 00:20:03;;;;;;;3.60;2.20;;;;;;;12.39;42.16;97339.09;5204186;27;20094;-82
2024/04/19 00:22:29;;;;;;;2.42;2.13;;;;;;;12.06;42.90;97317.44;5145297;27;20091;-81
2024/04/19 00:24:54;;;;;;;2.97;2.08;;;;;;;12.20;42.46;97320.44;5180972;27;20011;-82
2024/04/19 00:27:19;;;;;;;3.33;2.10;;;;;;;12.28;42.65;97319.94;5151847;27;20048;-81
2024/04/19 00:29:45;;;;;;;2.60;2.05;;;;;;;11.97;42.89;97314.50;5178174;27;20055;-82
2024/04/19 00:32:11;;;;;;;2.85;2.30;;;;;;;11.87;43.21;97314.38;5151893;27;20007;-82
2024/04/19 00:34:36;;;;;;;2.97;2.15;;;;;;;11.79;43.53;97307.03;5124963;27;20048;-82
2024/04/19 00:37:02;;;;;;;3.60;2.10;;;;;;;11.86;43.52;97301.59;5204624;27;20012;-81
2024/04/19 00:39:27;;;;;;;3.17;2.47;;;;;;;11.71;43.65;97310.09;5178624;27;20457;-81
2024/04/19 00:41:53;;;;;;;4.45;2.90;;;;;;;11.97;43.46;97308.50;5152550;27;20584;-82
2024/04/19 00:44:18;;;;;;;3.92;2.40;;;;;;;12.16;43.03;97304.47;5205773;27;20007;-81
2024/04/19 00:46:46;;;;;;;4.45;2.13;;;;;;;12.31;42.42;97314.22;5177302;27;20443;-81
2024/04/19 00:49:11;;;;;;;3.40;2.28;;;;;;;12.38;42.53;97314.00;5206373;27;20015;-81
2024/04/19 00:51:38;;;;;;;3.53;2.60;;;;;;;12.34;42.30;97292.84;5178434;27;20011;-81
2024/04/19 00:54:03;;;;;;;4.15;2.40;;;;;;;12.41;42.36;97303.06;5149045;27;20124;-81
2024/04/19 00:56:29;;;;;;;3.20;2.38;;;;;;;12.39;42.19;97304.34;5179472;27;20027;-81
2024/04/19 00:58:55;;;;;;;3.42;2.47;;;;;;;12.43;42.13;97308.81;5177686;27;20016;-80
2024/04/19 01:01:21;;;;;;;5.90;2.30;;;;;;;12.43;42.13;97295.75;5178331;27;20350;-80
2024/04/19 01:03:47;;;;;;;2.88;2.47;;;;;;;12.39;41.85;97299.91;5151916;27;20007;-80
2024/04/19 01:06:14;;;;;;;4.00;2.65;;;;;;;12.38;42.06;97290.50;5204448;27;20008;-79
2024/04/19 01:08:39;;;;;;;3.55;2.25;;;;;;;12.36;41.87;97276.91;5204406;27;20016;-80
2024/04/19 01:11:05;;;;;;;4.53;2.65;;;;;;;12.34;41.80;97266.72;5202788;27;20367;-86
2024/04/19 01:13:30;;;;;;;5.13;2.90;;;;;;;12.47;42.06;97286.38;5176809;27;20044;-84
2024/04/19 01:15:56;;;;;;;4.93;2.72;;;;;;;12.42;42.11;97275.91;5204319;27;20401;-84
2024/04/19 01:18:21;;;;;;;4.03;2.85;;;;;;;12.51;41.83;97273.63;5150378;27;20456;-85
2024/04/19 01:20:47;;;;;;;4.97;2.83;;;;;;;12.48;42.56;97274.88;5203026;27;20056;-84
2024/04/19 01:23:14;;;;;;;5.32;3.00;;;;;;;12.41;42.14;97279.56;5149654;27;20083;-86
2024/04/19 01:25:41;;;;;;;4.25;2.60;;;;;;;12.55;42.26;97270.22;5149482;27;20389;-86
2024/04/19 01:28:11;;;;;;;4.80;2.72;;;;;;;12.57;42.37;97282.25;5173275;27;20064;-85
2024/04/19 01:30:42;;;;;;;6.18;3.25;;;;;;;12.61;42.41;97283.31;5153743;27;20008;-83
2024/04/19 01:33:07;;;;;;;4.65;2.88;;;;;;;12.60;42.09;97273.91;5152987;27;20416;-85
2024/04/19 01:35:33;;;;;;;4.85;3.00;;;;;;;12.68;41.92;97265.56;5178802;27;20016;-82
2024/04/19 01:37:58;;;;;;;4.72;3.20;;;;;;;12.61;41.77;97259.78;5156928;27;20003;-83
2024/04/19 01:40:24;;;;;;;6.28;3.85;;;;;;;12.61;41.83;97265.00;5152866;27;20494;-83
2024/04/19 01:42:49;;;;;;;5.50;3.33;;;;;;;12.57;42.02;97253.53;5207729;27;20012;-85
2024/04/19 01:45:15;;;;;;;5.65;3.40;;;;;;;12.50;42.19;97251.91;5152641;27;20047;-83
2024/04/19 01:47:40;;;;;;;5.05;3.85;;;;;;;12.64;42.13;97254.06;5206571;27;20023;-84
2024/04/19 01:50:07;;;;;;;8.75;3.90;;;;;;;12.57;42.00;97245.69;5206419;27;20020;-83
2024/04/19 01:52:32;;;;;;;9.60;4.60;;;;;;;12.62;42.03;97240.47;5177811;27;20448;-83
2024/04/19 01:54:58;;;;;;;6.05;3.75;;;;;;;12.63;42.19;97242.03;5152466;27;20015;-84
2024/04/19 01:57:23;;;;;;;7.75;3.85;;;;;;;12.63;42.13;97232.41;5207437;27;20091;-81
2024/04/19 01:59:48;;;;;;;6.47;3.85;;;;;;;12.68;42.18;97239.44;5179316;27;20024;-85
2024/04/19 02:02:14;;;;;;;6.07;3.72;;;;;;;12.66;42.42;97225.84;5145974;27;20022;-84
2024/04/19 02:04:39;;;;;;;6.25;4.43;;;;;;;12.48;42.80;97221.88;5132483;27;20004;-83
2024/04/19 02:07:05;;;;;;;6.78;3.80;;;;;;;12.47;42.73;97221.06;5206674;27;20083;-85
2024/04/19 02:09:37;;;;;;;6.93;4.38;;;;;;;12.67;42.51;97222.22;5178337;27;20056;-84
2024/04/19 02:12:02;;;;;;;7.15;3.80;;;;;;;12.62;42.59;97224.81;5180070;27;20333;-84
2024/04/19 02:14:30;;;;;;;6.53;4.10;;;;;;;12.73;42.50;97219.38;5153039;27;20023;-84
2024/04/19 02:16:57;;;;;;;5.43;3.60;;;;;;;12.50;42.81;97217.97;5179525;27;20000;-84
2024/04/19 02:19:23;;;;;;;6.70;4.32;;;;;;;12.64;42.90;97209.66;5178848;27;20087;-84
2024/04/19 02:21:48;;;;;;;7.35;4.57;;;;;;;12.57;42.95;97206.50;5180232;27;20014;-84
2024/04/19 02:24:14;;;;;;;5.75;3.45;;;;;;;12.69;42.69;97202.63;5179160;27;20009;-83
2024/04/19 02:26:40;;;;;;;7.18;4.15;;;;;;;12.59;42.68;97186.91;5205338;27;20023;-84
2024/04/19 02:31:50;;;;;;;8.23;4.32;;;;;;;12.69;43.10;97184.31;5206505;27;20004;-84
2024/04/19 02:34:15;;;;;;;7.03;4.47;;;;;;;12.76;42.77;97183.31;5206576;27;20036;-84
2024/04/19 02:36:41;;;;;;;5.93;3.85;;;;;;;12.81;42.62;97184.09;5179841;27;20019;-83
2024/04/19 02:39:06;;;;;;;5.40;3.63;;;;;;;12.65;42.83;97180.66;5201114;27;20012;-80
2024/04/19 02:41:31;;;;;;;6.05;4.35;;;;;;;12.68;42.86;97179.34;5144055;27;20012;-80
2024/04/19 02:43:57;;;;;;;7.65;4.50;;;;;;;12.56;43.24;97171.78;5174052;27;20008;-81
2024/04/19 02:46:23;;;;;;;6.50;4.18;;;;;;;12.66;43.03;97171.00;5183375;27;20043;-80
2024/04/19 02:48:49;;;;;;;7.18;4.40;;;;;;;12.64;43.21;97170.47;5179375;27;20456;-80
2024/04/19 02:51:18;;;;;;;6.88;4.57;;;;;;;12.73;43.19;97169.72;5179824;27;20007;-79
2024/04/19 02:53:44;;;;;;;8.07;4.07;;;;;;;12.64;43.48;97155.59;5179285;27;20008;-80
2024/04/19 02:56:09;;;;;;;8.65;4.50;;;;;;;12.75;42.78;97159.03;5206400;27;20012;-80
2024/04/19 02:58:35;;;;;;;6.75;4.18;;;;;;;12.69;43.17;97162.66;5177119;27;20011;-80
2024/04/19 03:01:00;;;;;;;6.10;4.50;;;;;;;12.61;43.14;97144.88;5178571;27;20553;-80
2024/04/19 03:03:26;;;;;;;7.90;4.60;;;;;;;12.65;43.42;97151.16;5208896;27;20503;-81
2024/04/19 03:05:54;;;;;;;7.13;4.00;;;;;;;12.79;42.98;97152.22;5152049;27;20008;-78
2024/04/19 03:08:21;;;;;;;6.78;3.92;;;;;;;12.72;43.12;97155.09;5152373;27;20004;-82
2024/04/19 03:10:46;;;;;;;7.05;4.40;;;;;;;12.80;43.11;97148.59;5179312;27;20476;-82
2024/04/19 03:13:12;;;;;;;5.65;3.95;;;;;;;12.70;43.42;97153.78;5207265;27;20007;-80
2024/04/19 03:15:38;;;;;;;7.40;4.45;;;;;;;12.73;43.39;97159.28;5178807;27;20014;-82
2024/04/19 03:18:04;;;;;;;6.97;4.07;;;;;;;12.63;43.52;97138.34;5180816;27;20015;-82
2024/04/19 03:20:29;;;;;;;6.78;4.55;;;;;;;12.70;43.88;97149.34;5164322;27;20028;-81
2024/04/19 03:22:55;;;;;;;8.38;4.68;;;;;;;12.82;44.06;97158.78;5179103;27;20464;-82
2024/04/19 03:25:20;;;;;;;8.82;4.40;;;;;;;12.74;44.25;97162.66;5205918;27;20004;-80
2024/04/19 03:27:46;;;;;;;6.47;3.97;;;;;;;12.88;43.83;97137.59;5151621;27;20527;-80
2024/04/19 03:30:11;;;;;;;7.68;4.75;;;;;;;12.92;44.00;97128.22;5177060;27;20026;-81
2024/04/19 03:32:36;;;;;;;8.63;4.82;;;;;;;12.93;43.63;97116.69;5177494;27;20016;-80
2024/04/19 03:35:02;;;;;;;6.75;4.13;;;;;;;12.87;44.03;97115.13;5207150;27;20004;-80
2024/04/19 03:37:27;;;;;;;5.43;4.22;;;;;;;13.03;43.96;97117.75;5177311;27;20074;-80
2024/04/19 03:39:53;;;;;;;8.40;4.60;;;;;;;13.03;43.87;97107.31;5205167;27;20048;-79
2024/04/19 03:42:20;;;;;;;7.57;4.15;;;;;;;13.03;44.25;97109.91;5151120;27;20022;-80
2024/04/19 03:47:29;;;;;;;7.63;4.57;;;;;;;13.05;44.11;97113.06;5175652;27;20019;-80
2024/04/19 03:49:55;;;;;;;8.75;5.25;;;;;;;13.07;44.16;97105.72;5177066;27;20000;-80
2024/04/19 03:52:20;;;;;;;8.32;4.18;;;;;;;12.94;44.53;97096.59;5177581;27;20022;-80
2024/04/19 03:54:46;;;;;;;7.40;4.43;;;;;;;13.04;44.48;97103.63;5151961;27;20012;-80
2024/04/19 03:57:11;;;;;;;9.35;4.88;;;;;;;12.92;44.55;97096.06;5151092;27;20086;-80
2024/04/19 03:59:38;;;;;;;7.40;4.55;;;;;;;12.96;45.44;97104.94;5205044;27;20011;-78
2024/04/19 04:02:04;;;;;;;7.53;5.35;;;;;;;13.02;44.49;97106.53;5204286;27;20087;-79
2024/04/19 04:04:29;;;;;;;6.93;4.45;;;;;;;12.77;45.67;97104.69;5171684;27;20416;-81
2024/04/19 04:06:55;;;;;;;9.43;6.05;;;;;;;12.90;45.63;97091.09;5205155;27;20480;-79
2024/04/19 04:09:20;;;;;;;8.15;4.85;;;;;;;13.05;45.20;97092.13;5178667;27;20034;-79
2024/04/19 04:11:46;;;;;;;8.15;5.32;;;;;;;13.02;45.07;97082.19;5204457;27;20482;-80
2024/04/19 04:14:11;;;;;;;8.73;5.80;;;;;;;12.96;45.24;97070.19;5150012;27;20020;-80
2024/04/19 04:16:37;;;;;;;9.50;5.00;;;;;;;12.78;45.49;97063.66;5176648;27;20023;-80
2024/04/19 04:19:03;;;;;;;8.95;5.43;;;;;;;12.98;45.65;97073.34;5176580;27;20026;-80
2024/04/19 04:21:28;;;;;;;8.52;5.20;;;;;;;13.02;45.68;97069.13;5170476;27;20005;-80
2024/04/19 04:23:54;;;;;;;8.80;5.80;;;;;;;12.92;45.55;97057.66;5172706;27;20030;-79
2024/04/19 04:26:19;;;;;;;7.40;4.93;;;;;;;12.72;45.99;97074.09;5204580;27;20008;-79
2024/04/19 04:28:44;;;;;;;11.90;6.13;;;;;;;12.89;46.03;97065.22;5204975;27;20027;-79
2024/04/19 04:31:10;;;;;;;8.93;5.70;;;;;;;12.91;46.05;97074.38;5204998;27;20477;-80
2024/04/19 04:33:35;;;;;;;8.07;5.53;;;;;;;13.13;45.62;97070.72;5177622;27;20012;-80
2024/04/19 04:36:01;;;;;;;6.88;5.35;;;;;;;13.05;45.76;97064.16;5149577;27;20012;-80
2024/04/19 04:38:26;;;;;;;7.57;5.28;;;;;;;12.97;45.85;97059.50;5149038;27;20052;-79
2024/04/19 04:40:51;;;;;;;11.10;6.32;;;;;;;12.98;45.81;97057.66;5204163;27;20026;-83
2024/04/19 04:43:17;;;;;;;8.77;5.75;;;;;;;12.86;46.36;97056.06;5204023;27;20334;-83
2024/04/19 04:45:45;;;;;;;7.68;5.32;;;;;;;12.94;46.42;97057.38;5150313;27;20051;-84
2024/04/19 04:48:12;;;;;;;9.65;6.10;;;;;;;13.13;46.02;97051.63;5149425;27;20008;-84
2024/04/19 04:50:37;;;;;;;9.98;6.35;;;;;;;13.16;45.80;97051.09;5123884;27;20412;-85
2024/04/19 04:53:03;;;;;;;7.80;5.47;;;;;;;12.87;46.55;97043.81;5203415;27;20020;-84
2024/04/19 04:55:32;;;;;;;6.90;5.18;;;;;;;13.03;46.56;97047.97;5201591;27;20035;-83
2024/04/19 04:57:58;;;;;;;10.10;6.07;;;;;;;13.14;46.17;97048.72;5176032;27;20467;-85
2024/04/19 05:00:28;;;;;;;8.48;5.90;;;;;;;13.05;46.23;97038.03;5203944;27;19999;-85
2024/04/19 05:02:57;;;;;;;8.23;6.25;;;;;;;13.17;46.87;97036.97;5174987;27;20000;-84
2024/04/19 05:05:23;;;;;;;8.52;5.93;;;;;;;13.17;46.20;97024.69;5148989;27;20011;-84
2024/04/19 05:07:48;;;;;;;10.35;6.65;;;;;;;13.01;46.63;97031.78;5203760;27;20004;-84
2024/04/19 05:10:14;;;;;;;11.05;6.55;;;;;;;13.03;46.63;97027.06;5201981;27;20321;-85
2024/04/19 05:12:39;;;;;;;11.15;7.00;;;;;;;12.91;46.55;97019.47;5150127;27;20043;-86
2024/04/19 05:15:05;;;;;;;11.23;6.43;;;;;;;13.24;46.58;97022.56;5149060;27;20015;-85
2024/04/19 05:17:32;;;;;;;10.23;7.03;;;;;;;12.97;47.01;97016.88;5149306;27;20011;-84
2024/04/19 05:19:57;;;;;;;10.65;7.10;;;;;;;13.25;46.67;97021.53;5176503;27;20000;-85
2024/04/19 05:22:23;;;;;;;10.77;6.93;;;;;;;13.30;46.27;97003.22;5175847;27;20015;-87
2024/04/19 05:24:48;;;;;;;9.55;6.25;;;;;;;13.39;46.44;97007.94;5149779;27;20022;-85
2024/04/19 05:27:13;;;;;;;10.55;7.03;;;;;;;12.83;47.51;97001.72;5173597;27;20012;-87
2024/04/19 05:29:39;;;;;;;8.20;5.97;;;;;;;12.94;47.36;97005.13;5122407;27;20472;-85
2024/04/19 05:32:05;;;;;;;9.85;6.22;;;;;;;12.99;46.85;97006.94;5204515;27;20008;-85
2024/04/19 05:34:30;;;;;;;8.30;6.10;;;;;;;12.96;47.00;96989.19;5171768;27;20023;-86
2024/04/19 05:36:56;;;;;;;9.23;6.45;;;;;;;12.92;46.70;96968.81;5151795;27;20363;-86
2024/04/19 05:39:21;;;;;;;9.55;6.35;;;;;;;12.95;47.12;96983.16;5151111;27;20456;-86
2024/04/19 05:41:47;;;;;;;11.38;6.70;;;;;;;12.81;47.17;96959.41;5149361;27;20091;-85
2024/04/19 05:44:18;;;;;;;9.43;6.38;;;;;;;12.82;47.64;96984.50;5147938;27;20027;-85
2024/04/19 05:46:45;;;;;;;7.45;5.47;;;;;;;13.12;46.85;96972.41;5177430;27;20401;-84
2024/04/19 05:49:11;;;;;;;8.73;5.78;;;;;;;12.98;47.21;96953.88;5176467;27;20023;-85
2024/04/19 05:51:36;;;;;;;11.35;6.45;;;;;;;13.04;46.95;96975.56;5152401;27;20019;-80
2024/04/19 05:54:02;;;;;;;10.43;6.40;;;;;;;12.91;47.81;96971.69;5181426;27;20012;-82
2024/04/19 05:56:28;;;;;;;11.65;7.00;;;;;;;12.78;47.90;96974.81;5184110;27;20012;-81
2024/04/19 05:58:54;;;;;;;10.77;6.93;;;;;;;13.05;47.32;96958.84;5212515;27;20012;-80
2024/04/19 06:01:20;;;;;;;10.93;7.32;;;;;;;13.01;47.45;96970.88;5158522;27;20024;-84
2024/04/19 06:03:46;;;;;;;11.00;7.20;;;;;;;13.02;47.40;96967.22;5182189;27;20019;-81
2024/04/19 06:06:11;;;;;;;8.90;6.47;;;;;;;12.14;49.12;96956.78;5154590;27;20008;-79
2024/04/19 06:08:36;;;;;;;9.38;6.60;;;;;;;12.89;47.54;96963.31;5180489;27;20300;-78
2024/04/19 06:11:02;;;;;;;9.20;6.22;;;;;;;12.90;47.70;96968.28;5179309;27;20026;-79
2024/04/19 06:13:27;;;;;;;9.75;6.65;;;;;;;13.00;47.60;96957.00;5207455;27;20012;-79
2024/04/19 06:15:53;;;;;;;11.15;6.80;;;;;;;12.92;47.54;96953.13;5126687;27;20535;-79
2024/04/19 06:18:18;;;;;;;10.38;6.88;;;;;;;13.04;47.07;96938.97;5179085;27;20033;-80
2024/04/19 06:20:44;;;;;;;10.48;6.45;;;;;;;12.75;47.62;96952.63;5182654;27;20011;-79
2024/04/19 06:23:09;;;;;;;8.55;6.22;;;;;;;13.08;47.18;96947.88;5208019;27;20022;-79
2024/04/19 06:25:35;;;;;;;8.50;5.75;;;;;;;12.85;47.31;96947.41;5211595;27;20004;-80
2024/04/19 06:28:00;;;;;;;8.80;6.22;;;;;;;12.85;47.23;96931.72;5155614;27;20028;-80
2024/04/19 06:30:25;;;;;;;8.57;6.07;;;;;;;12.72;48.07;96927.81;5157379;27;20020;-79
2024/04/19 06:32:51;;;;;;;9.02;6.30;;;;;;;12.98;47.48;96940.03;5210802;27;20481;-80
2024/04/19 06:35:18;;;;;;;10.27;6.32;;;;;;;12.96;47.73;96929.06;5153145;27;20039;-80
2024/04/19 06:37:44;;;;;;;7.40;5.28;;;;;;;12.79;47.73;96911.84;5129081;27;20595;-80
2024/04/19 06:40:10;;;;;;;8.25;5.53;;;;;;;12.83;47.34;96925.16;5214792;27;20634;-81
2024/04/19 06:42:35;;;;;;;7.47;5.28;;;;;;;12.80;47.86;96902.19;5153375;27;20012;-80
2024/04/19 06:45:00;;;;;;;8.40;5.32;;;;;;;12.82;47.52;96910.56;5185309;27;20773;-80
2024/04/19 06:47:26;;;;;;;8.15;5.30;;;;;;;12.96;47.30;96918.63;5185157;27;20004;-79
2024/04/19 06:49:51;;;;;;;7.00;5.00;;;;;;;12.49;48.63;96891.78;5214056;27;20022;-81
2024/04/19 06:52:17;;;;;;;6.57;4.50;;;;;;;12.80;48.08;96892.53;5215982;27;20052;-81
2024/04/19 06:54:42;;;;;;;7.43;4.90;;;;;;;12.87;47.62;96902.72;5185347;27;20003;-80
2024/04/19 06:57:07;;;;;;;7.35;5.22;;;;;;;12.99;47.56;96889.31;5187087;27;20043;-79
2024/04/19 06:59:33;;;;;;;7.65;5.30;;;;;;;13.08;47.08;96869.44;5185912;27;20011;-82
2024/04/19 07:01:58;;;;;;;7.15;4.72;;;;;;;13.06;47.51;96866.31;5156870;27;20028;-83
2024/04/19 07:04:24;;;;;;;7.00;4.47;;;;;;;12.91;47.39;96867.16;5151961;27;20124;-83
2024/04/19 07:06:49;;;;;;;9.00;5.03;;;;;;;12.91;47.56;96865.31;5207878;27;20004;-83
2024/04/19 07:09:15;;;;;;;7.00;4.20;;;;;;;12.85;47.44;96862.97;5178378;27;20000;-84
2024/04/19 07:11:41;;;;;;;7.53;4.20;;;;;;;13.15;47.00;96869.94;5179780;27;20500;-82
2024/04/19 07:14:07;;;;;;;6.68;4.40;;;;;;;12.73;47.69;96856.22;5179686;27;20254;-83
2024/04/19 07:16:32;;;;;;;5.43;3.70;;;;;;;13.05;47.05;96859.53;5150707;27;20007;-84
2024/04/19 07:18:58;;;;;;;7.82;4.03;;;;;;;13.01;47.60;96851.44;5150702;27;20016;-82
2024/04/19 07:21:23;;;;;;;6.47;3.85;;;;;;;12.75;47.59;96861.19;5178903;27;20008;-83
2024/04/19 07:23:48;;;;;;;6.13;4.03;;;;;;;13.17;47.63;96848.75;5125066;27;20079;-83
2024/04/19 07:26:14;;;;;;;5.85;4.25;;;;;;;13.35;47.19;96847.38;5176574;27;20453;-83
2024/04/19 07:28:39;;;;;;;7.28;4.60;;;;;;;13.37;46.96;96837.44;5177879;27;20457;-83
2024/04/19 07:31:05;;;;;;;6.80;4.53;;;;;;;12.80;48.36;96839.47;5206638;27;20373;-84
2024/04/19 07:33:30;;;;;;;7.25;4.32;;;;;;;13.21;47.15;96834.88;5151921;27;20044;-86
2024/04/19 07:35:55;;;;;;;7.47;4.60;;;;;;;12.93;48.15;96831.84;5176898;27;20031;-84
2024/04/19 07:38:21;;;;;;;7.65;3.83;;;;;;;13.13;47.67;96819.00;5206636;27;20008;-84
2024/04/19 07:40:46;;;;;;;7.18;4.70;;;;;;;13.32;47.27;96813.94;5207429;27;20000;-86
2024/04/19 07:43:12;;;;;;;6.05;4.35;;;;;;;13.05;48.07;96815.09;5151969;27;20019;-84
2024/04/19 07:45:37;;;;;;;8.45;4.93;;;;;;;12.90;48.17;96798.44;5180821;27;20019;-84
2024/04/19 07:48:03;;;;;;;6.90;4.93;;;;;;;12.98;48.05;96798.94;5155607;27;20003;-83
2024/04/19 07:50:28;;;;;;;7.68;4.72;;;;;;;13.04;47.99;96788.19;5203372;27;20052;-83
2024/04/19 07:52:53;;;;;;;7.95;4.90;;;;;;;13.04;48.18;96797.84;5178209;27;20579;-82
2024/04/19 07:55:19;;;;;;;6.97;4.63;;;;;;;13.12;48.52;96797.28;5204404;27;20094;-81
2024/04/19 07:57:49;;;;;;;8.60;5.00;;;;;;;13.44;47.58;96783.00;5151326;27;20022;-83
2024/04/19 08:00:17;;;;;;;9.05;5.50;;;;;;;13.21;48.01;96777.38;5205169;27;20011;-83
2024/04/19 08:02:44;;;;;;;7.88;5.32;;;;;;;13.40;48.04;96784.59;5151414;27;20031;-82
2024/04/19 08:05:09;;;;;;;6.90;4.60;;;;;;;13.19;48.30;96766.38;5173020;27;20525;-84
2024/04/19 08:07:35;;;;;;;8.27;4.88;;;;;;;13.03;48.71;96767.53;5166692;27;20015;-86
2024/04/19 08:10:01;;;;;;;8.27;5.18;;;;;;;13.18;48.31;96767.44;5177701;27;20004;-83
2024/04/19 08:12:27;;;;;;;7.40;5.20;;;;;;;13.31;48.51;96776.50;5206978;27;20011;-77
2024/04/19 08:14:53;;;;;;;7.78;4.75;;;;;;;13.13;48.36;96770.09;5208174;27;20443;-84
2024/04/19 08:17:18;;;;;;;8.48;5.80;;;;;;;13.40;48.06;96758.44;5206285;27;20031;-85
2024/04/19 08:19:43;;;;;;;7.47;4.85;;;;;;;13.70;47.57;96772.38;5204972;27;20091;-84
2024/04/19 08:22:10;;;;;;;8.32;4.80;;;;;;;13.32;48.05;96751.97;5176595;27;20008;-82
2024/04/19 08:24:35;;;;;;;7.13;5.05;;;;;;;12.84;49.49;96752.47;5208029;27;20008;-83
2024/04/19 08:27:01;;;;;;;8.95;5.82;;;;;;;13.16;48.79;96730.34;5151218;27;20014;-84
2024/04/19 08:29:27;;;;;;;7.57;5.55;;;;;;;13.29;48.97;96753.25;5150584;27;20488;-84
2024/04/19 08:31:52;;;;;;;7.03;4.97;;;;;;;13.28;48.40;96749.09;5151549;27;20007;-85
2024/04/19 08:34:17;;;;;;;7.25;4.88;;;;;;;13.07;48.52;96739.81;5151342;27;20016;-86
2024/04/19 08:36:43;;;;;;;6.88;4.93;;;;;;;12.74;49.94;96731.63;5179670;27;20014;-83
2024/04/19 08:39:08;;;;;;;8.65;5.60;;;;;;;12.90;49.66;96725.28;5177533;27;20531;-83
2024/04/19 08:41:34;;;;;;;7.80;5.40;;;;;;;13.49;48.10;96739.28;5124345;27;20035;-84
2024/04/19 08:44:00;;;;;;;7.80;5.10;;;;;;;13.49;48.42;96734.06;5175495;27;20349;-84
2024/04/19 08:46:32;;;;;;;9.82;6.05;;;;;;;13.64;47.97;96733.16;5176347;27;20004;-82
2024/04/19 08:49:08;;;;;;;7.13;5.65;;;;;;;13.58;48.48;96742.09;5204825;27;20481;-85
2024/04/19 08:51:37;;;;;;;8.27;5.28;;;;;;;13.67;48.29;96735.22;5178477;27;20391;-83
2024/04/19 08:54:04;;;;;;;7.07;5.00;;;;;;;13.70;48.21;96736.50;5172303;27;20095;-85
2024/04/19 08:56:29;;;;;;;7.00;5.47;;;;;;;13.58;48.33;96744.72;5178069;27;20012;-83
2024/04/19 08:58:56;;;;;;;7.68;5.47;;;;;;;13.45;48.41;96730.44;5172672;27;20348;-84
2024/04/19 09:01:22;;;;;;;6.53;4.68;;;;;;;13.50;47.52;96716.53;5174618;27;20008;-86
2024/04/19 09:03:47;;;;;;;9.10;5.18;;;;;;;13.15;49.03;96720.16;5177902;27;20102;-84
2024/04/19 09:06:13;;;;;;;6.40;4.55;;;;;;;13.11;48.90;96717.31;5177955;27;20595;-86
2024/04/19 09:08:39;;;;;;;8.25;4.85;;;;;;;13.46;48.49;96715.50;5177743;27;20016;-85
2024/04/19 09:11:11;;;;;;;5.50;4.68;;;;;;;13.75;48.09;96706.91;5151788;27;20008;-86
2024/04/19 09:13:37;;;;;;;6.78;4.95;;;;;;;13.64;48.32;96700.97;5151655;27;20453;-85
2024/04/19 09:16:03;;;;;;;6.55;4.55;;;;;;;13.66;48.24;96704.13;5149487;27;20023;-83
2024/04/19 09:18:28;;;;;;;6.45;4.55;;;;;;;13.53;48.48;96697.66;5148047;27;20027;-83
2024/04/19 09:20:54;;;;;;;6.90;4.38;;;;;;;13.65;48.26;96690.22;5149457;27;20341;-83
2024/04/19 09:23:19;;;;;;;5.95;4.57;;;;;;;13.58;48.21;96691.63;5150978;27;20022;-84
2024/04/19 09:25:51;;;;;;;7.38;4.45;;;;;;;13.43;48.44;96698.53;5177621;27;20004;-84
2024/04/19 09:28:19;;;;;;;6.25;4.40;;;;;;;13.51;48.40;96699.78;5176063;27;20011;-85
2024/04/19 09:30:44;;;;;;;7.30;4.53;;;;;;;13.60;48.57;96697.34;5178075;27;20018;-83
2024/04/19 09:33:16;;;;;;;6.90;4.45;;;;;;;13.82;47.77;96691.66;5148916;27;20023;-83
2024/04/19 09:35:41;;;;;;;6.30;4.15;;;;;;;13.60;48.27;96694.72;5205191;27;20008;-84
2024/04/19 09:38:08;;;;;;;6.85;4.18;;;;;;;13.81;48.05;96692.69;5175680;27;20027;-84
2024/04/19 09:40:35;;;;;;;6.90;4.18;;;;;;;13.88;48.06;96693.19;5175738;27;20019;-83
2024/04/19 09:43:09;;;;;;;6.07;4.65;;;;;;;13.66;48.50;96691.81;5177174;27;20012;-81
2024/04/19 09:45:43;;;;;;;5.75;4.15;;;;;;;14.07;47.51;96688.00;5173215;27;20008;-83
2024/04/19 09:48:15;;;;;;;5.43;3.92;;;;;;;14.01;47.79;96692.50;5175958;27;20044;-83
2024/04/19 09:50:45;;;;;;;6.75;4.20;;;;;;;13.73;48.17;96677.63;5172647;27;20013;-84
2024/04/19 09:53:16;;;;;;;6.18;4.18;;;;;;;13.81;47.98;96672.56;5121708;27;20008;-83
2024/04/19 09:56:05;;;;;;;5.53;4.15;;;;;;;14.12;47.66;96671.44;5205450;27;20011;-84
2024/04/19 09:58:31;;;;;;;5.65;3.92;;;;;;;13.70;48.21;96678.94;5207073;27;20086;-85
2024/04/19 10:00:58;;;;;;;6.25;3.92;;;;;;;13.67;48.23;96675.06;5152003;27;20008;-82
2024/04/19 10:03:25;;;;;;;4.40;3.70;;;;;;;13.65;48.13;96665.91;5182247;27;20015;-84
2024/04/19 10:05:51;;;;;;;5.45;3.60;;;;;;;13.68;47.57;96660.13;5151591;27;20409;-87
2024/04/19 10:08:16;;;;;;;5.90;4.15;;;;;;;13.08;49.60;96662.97;5181186;27;20019;-83
2024/04/19 10:10:42;;;;;;;6.03;4.38;;;;;;;13.70;47.64;96667.72;5206646;27;20075;-82
2024/04/19 10:13:08;;;;;;;4.88;4.20;;;;;;;13.81;48.42;96669.16;5208188;27;20256;-83
2024/04/19 10:15:33;;;;;;;5.80;4.28;;;;;;;13.49;48.39;96652.22;5207857;27;20007;-83
2024/04/19 10:18:06;;;;;;;5.53;3.42;;;;;;;13.88;48.32;96659.16;5152141;27;20091;-83
2024/04/19 10:20:32;;;;;;;6.60;3.90;;;;;;;13.60;47.92;96640.56;5180150;27;20011;-86
2024/04/19 10:22:58;;;;;;;5.18;3.60;;;;;;;13.53;47.97;96631.50;5179514;27;20380;-85
2024/04/19 10:25:24;;;;;;;4.60;3.53;;;;;;;13.63;48.44;96644.50;5180004;27;20008;-82
2024/04/19 10:27:50;;;;;;;6.40;3.38;;;;;;;13.83;48.00;96651.38;5153609;27;20031;-83
2024/04/19 10:30:17;;;;;;;5.00;2.92;;;;;;;13.85;48.08;96644.78;5180236;27;20481;-84
2024/04/19 10:32:42;;;;;;;5.15;3.17;;;;;;;13.86;48.30;96635.09;5151324;27;20008;-84
2024/04/19 10:35:17;;;;;;;4.80;3.65;;;;;;;13.57;48.50;96624.66;5152976;27;20026;-90
2024/04/19 10:37:42;;;;;;;4.25;2.85;;;;;;;13.42;48.89;96621.16;5208945;27;20556;-84
2024/04/19 10:40:08;;;;;;;4.93;3.28;;;;;;;13.48;48.65;96614.03;5143975;27;20027;-83
2024/04/19 10:42:33;;;;;;;5.05;3.38;;;;;;;13.25;49.29;96611.06;5182333;27;20026;-80
2024/04/19 10:44:59;;;;;;;5.63;3.13;;;;;;;13.38;48.89;96601.03;5182784;27;20027;-79
2024/04/19 10:47:24;;;;;;;4.38;3.00;;;;;;;13.70;48.75;96613.53;5161727;27;20058;-82
2024/04/19 10:49:52;;;;;;;4.78;3.17;;;;;;;13.88;48.75;96611.25;5217652;27;20004;-81
2024/04/19 10:52:23;;;;;;;5.53;3.58;;;;;;;13.66;48.74;96592.38;5217072;27;20068;-81
2024/04/19 10:54:49;;;;;;;4.65;3.22;;;;;;;13.83;48.47;96596.41;5189037;27;20365;-83
2024/04/19 10:57:14;;;;;;;4.63;3.50;;;;;;;13.97;48.53;96605.13;5189175;27;20000;-80
2024/04/19 10:59:40;;;;;;;4.43;3.45;;;;;;;13.88;48.74;96588.50;5161829;27;20004;-81
2024/04/19 11:02:05;;;;;;;5.40;3.83;;;;;;;13.89;48.56;96586.66;5135137;27;20040;-80
2024/04/19 11:04:30;;;;;;;5.22;3.40;;;;;;;13.27;49.12;96551.44;5186883;27;20022;-81
2024/04/19 11:06:56;;;;;;;4.22;3.53;;;;;;;13.83;48.92;96565.00;5192620;27;20000;-82
2024/04/19 11:09:22;;;;;;;6.07;3.35;;;;;;;13.76;48.81;96567.16;5188659;27;20007;-80
2024/04/19 11:11:48;;;;;;;6.00;3.38;;;;;;;13.88;48.79;96554.47;5164628;27;20565;-83
2024/04/19 11:14:15;;;;;;;4.43;3.20;;;;;;;13.99;48.84;96555.91;5221282;27;20003;-79
2024/04/19 11:16:41;;;;;;;5.00;3.35;;;;;;;13.92;48.72;96560.69;5222397;27;20000;-81
2024/04/19 11:19:06;;;;;;;5.78;3.55;;;;;;;13.86;48.77;96546.91;5187946;27;20004;-79
2024/04/19 11:21:33;;;;;;;4.70;3.60;;;;;;;13.75;49.73;96540.22;5159577;27;20019;-81
2024/04/19 11:23:58;;;;;;;4.80;3.63;;;;;;;14.09;48.66;96538.53;5190565;27;20018;-82
2024/04/19 11:26:24;;;;;;;5.05;3.25;;;;;;;13.99;48.95;96545.44;5161624;27;20364;-79
2024/04/19 11:28:50;;;;;;;5.47;3.60;;;;;;;13.98;48.69;96545.72;5184763;27;20019;-81
2024/04/19 11:31:16;;;;;;;4.43;3.22;;;;;;;14.14;48.58;96527.97;5157992;27;20004;-81